Time;durP1;ratioP1;P1;durP2;ratioP2;P2;SDS_P1;SDS_P2;PMS_P1;PMS_P2;Temp;Humidity;BMP_temperature;BMP_pressure;BME280_temperature;BME280_humidity;BME280_pressure;Samples;Min_cycle;Max_cycle;Signal;HPM_P1;HPM_P2
2022/09/29 00:00:34;;;;;;;6.65;5.65;;;7.30;99.90;;;;;;4980256;28;88978;-31
2022/09/29 00:03:00;;;;;;;6.22;5.68;;;7.20;99.90;;;;;;4980357;28;89626;-31
2022/09/29 00:05:26;;;;;;;7.22;6.53;;;7.20;99.90;;;;;;4980356;28;89204;-30
2022/09/29 00:07:52;;;;;;;7.00;6.38;;;7.30;99.90;;;;;;4980647;28;89715;-30
2022/09/29 00:10:18;;;;;;;8.00;6.82;;;7.30;99.90;;;;;;4967331;28;88364;-31
2022/09/29 00:12:43;;;;;;;7.07;6.57;;;7.30;99.90;;;;;;4981412;28;90422;-29
2022/09/29 00:15:10;;;;;;;7.78;7.00;;;7.30;99.90;;;;;;4980058;28;89761;-29
2022/09/29 00:17:35;;;;;;;10.05;6.78;;;7.30;99.90;;;;;;4980547;28;89324;-31
2022/09/29 00:20:02;;;;;;;8.15;7.35;;;7.30;99.90;;;;;;4980087;28;89445;-29
2022/09/29 00:22:27;;;;;;;7.60;6.90;;;7.30;99.90;;;;;;4980392;28;90011;-32
2022/09/29 00:24:53;;;;;;;7.47;6.88;;;7.20;99.90;;;;;;4980384;28;89525;-30
2022/09/29 00:27:19;;;;;;;6.90;6.20;;;7.20;99.90;;;;;;4979846;28;89280;-32
2022/09/29 00:29:45;;;;;;;7.70;7.10;;;7.20;99.90;;;;;;4980413;28;88718;-30
2022/09/29 00:32:11;;;;;;;8.38;7.57;;;7.20;99.90;;;;;;4980321;28;91453;-30
2022/09/29 00:34:37;;;;;;;7.30;6.60;;;7.20;99.90;;;;;;4981139;28;89829;-28
2022/09/29 00:37:03;;;;;;;7.70;6.65;;;7.20;99.90;;;;;;4980764;28;88748;-32
2022/09/29 00:39:28;;;;;;;7.50;6.75;;;7.10;99.90;;;;;;4979694;28;89253;-30
2022/09/29 00:41:56;;;;;;;8.70;7.93;;;7.10;99.90;;;;;;4980077;28;89979;-32
2022/09/29 00:44:22;;;;;;;7.27;6.40;;;7.10;99.90;;;;;;4978632;28;90786;-29
2022/09/29 00:46:57;;;;;;;7.60;6.60;;;7.10;99.90;;;;;;5019678;22;90650;-29
2022/09/29 00:49:28;;;;;;;6.93;6.30;;;7.10;99.90;;;;;;4999938;28;89086;-30
2022/09/29 00:52:03;;;;;;;7.75;7.05;;;7.10;99.90;;;;;;4999242;28;90008;-30
2022/09/29 00:54:37;;;;;;;9.43;8.45;;;7.10;99.90;;;;;;4999739;28;89428;-33
2022/09/29 00:57:04;;;;;;;8.55;7.75;;;7.10;99.90;;;;;;5000403;28;90059;-31
2022/09/29 00:59:45;;;;;;;7.57;6.88;;;7.00;99.90;;;;;;5000497;28;89534;-33
2022/09/29 01:02:12;;;;;;;8.38;7.50;;;7.00;99.90;;;;;;4999854;28;90691;-33
2022/09/29 01:04:39;;;;;;;9.75;7.07;;;7.00;99.90;;;;;;4999628;28;89577;-32
2022/09/29 01:07:08;;;;;;;6.63;6.13;;;6.90;99.90;;;;;;4999279;28;89162;-30
2022/09/29 01:09:37;;;;;;;11.38;7.38;;;6.90;99.90;;;;;;4999096;28;90109;-29
2022/09/29 01:12:03;;;;;;;7.50;6.50;;;6.90;99.90;;;;;;4999380;28;90308;-33
2022/09/29 01:14:31;;;;;;;12.95;7.72;;;6.90;99.90;;;;;;4999181;28;89518;-31
2022/09/29 01:16:57;;;;;;;5.85;5.35;;;6.80;99.90;;;;;;4999225;28;90513;-29
2022/09/29 01:19:47;;;;;;;7.40;6.80;;;6.80;99.90;;;;;;4998631;28;89043;-32
2022/09/29 01:22:57;;;;;;;8.48;7.68;;;6.80;99.90;;;;;;4998809;28;90381;-31
2022/09/29 01:25:35;;;;;;;7.78;6.90;;;6.80;99.90;;;;;;4999671;28;89022;-31
2022/09/29 01:28:22;;;;;;;8.32;7.55;;;6.70;99.90;;;;;;4999545;28;90194;-31
2022/09/29 01:30:59;;;;;;;8.23;7.40;;;6.70;99.90;;;;;;4999233;28;88693;-32
2022/09/29 01:33:46;;;;;;;8.15;7.55;;;6.70;99.90;;;;;;4999212;28;90222;-29
2022/09/29 01:36:34;;;;;;;9.67;8.70;;;6.80;99.90;;;;;;4998186;28;90758;-32
2022/09/29 01:39:23;;;;;;;11.50;10.40;;;6.80;99.90;;;;;;4999357;28;90849;-30
2022/09/29 01:41:54;;;;;;;9.57;8.05;;;6.80;99.90;;;;;;4998234;28;88831;-31
2022/09/29 01:44:25;;;;;;;9.25;8.35;;;6.80;99.90;;;;;;4998623;28;90409;-29
2022/09/29 01:47:12;;;;;;;9.95;9.05;;;6.80;99.90;;;;;;4996068;28;89676;-31
2022/09/29 01:49:44;;;;;;;9.63;8.73;;;6.80;99.90;;;;;;4999143;28;89538;-32
2022/09/29 01:52:19;;;;;;;11.55;9.35;;;6.70;99.90;;;;;;4998941;28;89385;-31
2022/09/29 01:54:58;;;;;;;10.32;9.30;;;6.70;99.90;;;;;;4999820;28;90326;-31
2022/09/29 01:57:45;;;;;;;9.43;8.35;;;6.80;99.90;;;;;;5001999;28;89304;-32
2022/09/29 02:00:16;;;;;;;10.23;9.18;;;6.80;99.90;;;;;;5002506;28;90379;-33
2022/09/29 02:03:00;;;;;;;10.48;9.43;;;6.80;99.90;;;;;;5001853;28;89834;-32
2022/09/29 02:05:30;;;;;;;9.52;8.63;;;6.80;99.90;;;;;;5001897;28;90535;-29
2022/09/29 02:08:01;;;;;;;10.15;9.25;;;6.80;99.90;;;;;;5002965;28;89676;-29
2022/09/29 02:10:36;;;;;;;16.75;10.55;;;6.80;99.90;;;;;;5002018;28;90069;-32
2022/09/29 02:13:06;;;;;;;14.13;10.23;;;6.80;99.90;;;;;;5002166;28;88642;-33
2022/09/29 02:15:35;;;;;;;10.70;9.55;;;6.80;99.90;;;;;;5000912;28;91372;-30
2022/09/29 02:18:12;;;;;;;11.40;10.40;;;6.80;99.90;;;;;;5001968;28;90064;-29
2022/09/29 02:20:38;;;;;;;8.98;8.02;;;6.80;99.90;;;;;;5001544;28;91057;-29
2022/09/29 02:23:03;;;;;;;9.73;8.82;;;6.70;99.90;;;;;;5002995;28;89121;-30
2022/09/29 02:25:33;;;;;;;11.82;9.32;;;6.70;99.90;;;;;;5001561;28;90242;-31
2022/09/29 02:28:00;;;;;;;11.38;9.80;;;6.70;99.90;;;;;;5001732;28;91582;-31
2022/09/29 02:30:25;;;;;;;11.50;10.30;;;6.70;99.90;;;;;;5001562;28;89059;-32
2022/09/29 02:32:51;;;;;;;9.10;8.20;;;6.70;99.90;;;;;;5001539;28;89985;-33
2022/09/29 02:35:17;;;;;;;9.65;8.73;;;6.70;99.90;;;;;;5001399;28;90282;-29
2022/09/29 02:38:16;;;;;;;11.23;10.05;;;6.60;99.90;;;;;;5002764;28;88393;-32
2022/09/29 02:41:17;;;;;;;11.27;10.10;;;6.60;99.90;;;;;;4945309;28;89528;-31
2022/09/29 02:43:49;;;;;;;12.40;9.35;;;6.60;99.90;;;;;;5000536;28;88461;-29
2022/09/29 02:46:53;;;;;;;11.77;10.20;;;6.60;99.90;;;;;;5001506;28;90194;-31
2022/09/29 02:49:46;;;;;;;25.40;11.30;;;6.60;99.90;;;;;;4980481;28;89783;-30
2022/09/29 02:52:27;;;;;;;60.83;13.52;;;6.60;99.90;;;;;;4981073;28;89630;-32
2022/09/29 02:55:10;;;;;;;20.20;11.35;;;6.50;99.90;;;;;;4980847;28;91077;-34
2022/09/29 02:58:17;;;;;;;28.20;10.95;;;6.60;99.90;;;;;;4980402;28;90268;-31
2022/09/29 03:00:44;;;;;;;52.70;11.73;;;6.50;99.90;;;;;;4932690;28;89963;-32
2022/09/29 03:03:10;;;;;;;9.98;8.98;;;6.50;99.90;;;;;;4980786;28;89393;-31
2022/09/29 03:05:35;;;;;;;25.13;9.82;;;6.50;99.90;;;;;;4981113;28;87703;-31
2022/09/29 03:08:01;;;;;;;23.35;10.27;;;6.40;99.90;;;;;;4981003;28;90518;-32
2022/09/29 03:10:27;;;;;;;15.02;10.60;;;6.40;99.90;;;;;;4980319;28;89603;-30
2022/09/29 03:12:52;;;;;;;13.23;9.77;;;6.40;99.90;;;;;;4981149;28;89855;-28
2022/09/29 03:15:18;;;;;;;29.75;10.85;;;6.30;99.90;;;;;;4981649;28;90588;-32
2022/09/29 03:17:44;;;;;;;16.40;11.07;;;6.30;99.90;;;;;;4980622;28;90228;-29
2022/09/29 03:20:10;;;;;;;16.00;11.35;;;6.30;99.90;;;;;;4979573;28;90649;-29
2022/09/29 03:22:36;;;;;;;11.68;10.52;;;6.30;99.90;;;;;;4980754;28;90126;-33
2022/09/29 03:25:04;;;;;;;12.25;11.05;;;6.30;99.90;;;;;;4980962;28;89091;-33
2022/09/29 03:27:30;;;;;;;12.73;11.52;;;6.30;99.90;;;;;;4979845;28;90225;-31
2022/09/29 03:29:56;;;;;;;12.18;10.98;;;6.20;99.90;;;;;;4980522;28;89797;-33
2022/09/29 03:32:22;;;;;;;14.43;12.43;;;6.20;99.90;;;;;;4979800;28;90352;-31
2022/09/29 03:34:47;;;;;;;13.55;11.27;;;6.20;99.90;;;;;;4980255;28;89510;-33
2022/09/29 03:37:13;;;;;;;13.15;11.73;;;6.20;99.90;;;;;;4980614;28;89848;-29
2022/09/29 03:39:38;;;;;;;22.15;13.07;;;6.20;99.90;;;;;;4980122;28;89418;-29
2022/09/29 03:42:04;;;;;;;16.75;13.23;;;6.20;99.90;;;;;;4979973;28;89079;-31
2022/09/29 03:44:30;;;;;;;13.77;12.32;;;6.10;99.90;;;;;;4979711;28;90493;-31
2022/09/29 03:46:55;;;;;;;15.43;12.55;;;6.10;99.90;;;;;;4984030;28;90081;-34
2022/09/29 03:49:21;;;;;;;17.73;12.10;;;6.10;99.90;;;;;;4999766;28;88728;-31
2022/09/29 03:51:47;;;;;;;20.23;12.60;;;6.10;99.90;;;;;;4999974;28;89842;-34
2022/09/29 03:54:12;;;;;;;23.00;11.93;;;6.10;99.90;;;;;;5000107;28;89463;-30
2022/09/29 03:56:38;;;;;;;27.33;12.60;;;6.10;99.90;;;;;;5000314;28;90170;-31
2022/09/29 03:59:09;;;;;;;19.55;13.55;;;6.10;99.90;;;;;;5000173;28;89647;-30
2022/09/29 04:01:36;;;;;;;24.70;12.80;;;6.00;99.90;;;;;;4999527;28;88741;-32
2022/09/29 04:04:03;;;;;;;56.40;16.23;;;6.00;99.90;;;;;;5000498;28;90177;-31
2022/09/29 04:06:29;;;;;;;58.80;14.43;;;6.00;99.90;;;;;;4999401;28;90272;-31
2022/09/29 04:08:54;;;;;;;37.95;14.98;;;5.90;99.90;;;;;;4998925;28;90164;-29
2022/09/29 04:11:20;;;;;;;35.72;15.95;;;5.90;99.90;;;;;;4999401;28;91700;-28
2022/09/29 04:13:46;;;;;;;32.40;13.88;;;5.90;99.90;;;;;;4999461;28;89699;-28
2022/09/29 04:16:12;;;;;;;37.25;14.77;;;5.90;99.90;;;;;;4999510;28;91681;-33
2022/09/29 04:18:37;;;;;;;26.38;14.00;;;5.90;99.90;;;;;;4999591;28;88970;-30
2022/09/29 04:21:07;;;;;;;22.60;14.30;;;5.90;99.90;;;;;;4999297;28;88205;-30
2022/09/29 04:23:33;;;;;;;28.17;14.38;;;5.90;99.90;;;;;;4981678;28;89336;-32
2022/09/29 04:26:00;;;;;;;28.15;14.65;;;5.80;99.90;;;;;;4999513;28;92065;-29
2022/09/29 04:28:27;;;;;;;24.70;15.30;;;5.80;99.90;;;;;;4999123;28;89966;-32
2022/09/29 04:30:52;;;;;;;34.85;14.45;;;5.80;99.90;;;;;;4999589;28;89534;-33
2022/09/29 04:33:18;;;;;;;19.35;13.88;;;5.80;99.90;;;;;;4998990;28;89875;-30
2022/09/29 04:35:45;;;;;;;26.77;14.13;;;5.80;99.90;;;;;;4998629;28;90565;-30
2022/09/29 04:38:11;;;;;;;17.33;14.07;;;5.80;99.90;;;;;;4999444;28;89525;-32
2022/09/29 04:40:37;;;;;;;27.30;13.68;;;5.80;99.90;;;;;;4999288;28;89632;-29
2022/09/29 04:43:03;;;;;;;13.52;12.02;;;5.80;99.90;;;;;;4999510;28;89543;-29
2022/09/29 04:45:30;;;;;;;20.90;14.80;;;5.80;99.90;;;;;;4999234;28;88793;-33
2022/09/29 04:47:56;;;;;;;40.25;14.40;;;5.80;99.90;;;;;;4998436;28;90031;-32
2022/09/29 04:50:22;;;;;;;51.63;21.70;;;5.80;99.90;;;;;;4999189;28;89598;-29
2022/09/29 04:52:48;;;;;;;26.90;18.73;;;5.80;99.90;;;;;;4999258;28;89140;-30
2022/09/29 04:55:13;;;;;;;27.73;18.10;;;5.80;99.90;;;;;;4998451;28;90955;-29
2022/09/29 04:57:42;;;;;;;16.83;15.05;;;5.80;99.90;;;;;;4998867;28;90236;-29
2022/09/29 05:00:08;;;;;;;;;;;5.80;99.90;;;;;;4999829;28;89277;-30
2022/09/29 05:02:34;;;;;;;16.67;14.90;;;5.80;99.90;;;;;;5000975;28;88875;-33
2022/09/29 05:05:00;;;;;;;26.50;15.85;;;5.80;99.90;;;;;;4999099;28;90424;-33
2022/09/29 05:07:26;;;;;;;18.90;17.00;;;5.80;99.90;;;;;;4999143;28;89146;-29
2022/09/29 05:09:52;;;;;;;18.85;16.88;;;5.80;99.90;;;;;;4997606;28;89345;-30
2022/09/29 05:12:17;;;;;;;18.90;16.98;;;5.80;99.90;;;;;;4998778;28;88149;-30
2022/09/29 05:14:43;;;;;;;16.65;14.93;;;5.80;99.90;;;;;;4998695;28;90112;-31
2022/09/29 05:17:08;;;;;;;17.08;15.40;;;5.80;99.90;;;;;;4998984;28;89547;-31
2022/09/29 05:19:34;;;;;;;16.45;14.70;;;5.70;99.90;;;;;;4998158;28;90917;-30
2022/09/29 05:22:00;;;;;;;16.30;14.70;;;5.70;99.90;;;;;;4998509;28;89516;-29
2022/09/29 05:24:26;;;;;;;15.85;14.35;;;5.70;99.90;;;;;;4998733;28;90374;-31
2022/09/29 05:26:52;;;;;;;15.85;14.15;;;5.60;99.90;;;;;;4998393;28;89237;-30
2022/09/29 05:29:17;;;;;;;15.38;13.18;;;5.60;99.90;;;;;;4998511;28;89367;-32
2022/09/29 05:31:44;;;;;;;14.48;12.98;;;5.50;99.90;;;;;;4998488;28;89181;-32
2022/09/29 05:34:09;;;;;;;19.13;14.00;;;5.40;99.90;;;;;;4998523;28;90403;-31
2022/09/29 05:36:35;;;;;;;16.45;14.88;;;5.40;99.90;;;;;;4998503;28;89563;-30
2022/09/29 05:39:01;;;;;;;14.63;13.20;;;5.40;99.90;;;;;;4998289;28;90346;-28
2022/09/29 05:41:27;;;;;;;15.80;14.27;;;5.40;99.90;;;;;;4998544;28;89177;-32
2022/09/29 05:43:54;;;;;;;17.63;14.35;;;5.40;99.90;;;;;;4997481;28;90233;-32
2022/09/29 05:46:21;;;;;;;16.92;15.18;;;5.50;99.90;;;;;;4997418;28;89914;-32
2022/09/29 05:48:47;;;;;;;21.15;15.68;;;5.50;99.90;;;;;;4998822;28;90254;-32
2022/09/29 05:51:15;;;;;;;23.13;15.15;;;5.50;99.90;;;;;;4997979;28;89844;-29
2022/09/29 05:53:41;;;;;;;26.38;14.95;;;5.50;99.90;;;;;;4998764;28;90338;-32
2022/09/29 05:56:13;;;;;;;40.65;15.57;;;5.50;99.90;;;;;;4998048;28;89635;-35
2022/09/29 05:58:40;;;;;;;18.02;15.90;;;5.60;99.90;;;;;;4997835;28;89492;-33
2022/09/29 06:01:07;;;;;;;26.33;14.48;;;5.60;99.90;;;;;;4998050;28;88345;-28
2022/09/29 06:03:34;;;;;;;16.35;14.60;;;5.50;99.90;;;;;;4998137;28;90165;-30
2022/09/29 06:06:05;;;;;;;15.95;14.32;;;5.60;99.90;;;;;;4997870;28;89741;-31
2022/09/29 06:08:31;;;;;;;13.43;11.77;;;5.60;99.90;;;;;;4997885;28;89487;-32
2022/09/29 06:11:11;;;;;;;18.17;15.00;;;5.60;99.90;;;;;;4997347;28;89457;-32
2022/09/29 06:13:38;;;;;;;18.52;13.30;;;5.50;99.90;;;;;;4997617;28;90323;-29
2022/09/29 06:16:04;;;;;;;14.82;13.32;;;5.60;99.90;;;;;;4998148;28;90131;-31
2022/09/29 06:18:30;;;;;;;14.48;12.98;;;5.60;99.90;;;;;;4997750;28;89513;-30
2022/09/29 06:21:22;;;;;;;14.93;13.30;;;5.50;99.90;;;;;;4998040;28;90325;-30
2022/09/29 06:23:48;;;;;;;15.75;12.45;;;5.60;99.90;;;;;;4988437;28;90948;-29
2022/09/29 06:26:15;;;;;;;16.58;13.88;;;5.60;99.90;;;;;;4997120;28;89715;-29
2022/09/29 06:28:41;;;;;;;14.02;12.40;;;5.60;99.90;;;;;;4997915;28;90296;-32
2022/09/29 06:31:13;;;;;;;15.10;13.60;;;5.60;99.90;;;;;;4997475;28;88385;-32
2022/09/29 06:33:39;;;;;;;14.75;12.68;;;5.60;99.90;;;;;;4998272;28;89860;-32
2022/09/29 06:39:09;;;;;;;15.15;13.27;;;5.70;99.90;;;;;;4997877;28;91811;-32
2022/09/29 06:41:34;;;;;;;28.67;16.38;;;5.70;99.90;;;;;;4998131;28;89018;-29
2022/09/29 06:44:01;;;;;;;15.63;12.02;;;5.80;99.90;;;;;;5000698;28;89804;-29
2022/09/29 06:46:26;;;;;;;16.92;15.32;;;5.80;99.90;;;;;;4989187;28;89267;-30
2022/09/29 06:48:53;;;;;;;26.95;15.30;;;5.80;99.90;;;;;;5001043;28;91264;-32
2022/09/29 06:51:21;;;;;;;17.45;15.07;;;5.90;99.90;;;;;;5000330;28;88298;-31
2022/09/29 06:53:47;;;;;;;17.88;16.17;;;5.90;99.90;;;;;;5001207;28;90213;-33
2022/09/29 06:56:13;;;;;;;16.65;14.95;;;6.00;99.90;;;;;;5000896;28;89281;-30
2022/09/29 06:58:39;;;;;;;16.83;15.20;;;6.00;99.90;;;;;;5000275;28;90279;-30
2022/09/29 07:01:05;;;;;;;17.75;15.48;;;6.10;99.90;;;;;;5000869;28;89189;-30
2022/09/29 07:03:32;;;;;;;20.25;18.13;;;6.10;99.90;;;;;;5000259;28;91569;-30
2022/09/29 07:06:05;;;;;;;17.55;15.85;;;6.20;99.90;;;;;;5000960;28;90090;-32
2022/09/29 07:08:31;;;;;;;18.88;16.10;;;6.30;99.90;;;;;;5000849;28;89857;-32
2022/09/29 07:10:57;;;;;;;18.10;16.02;;;6.40;99.90;;;;;;5000588;28;88878;-32
2022/09/29 07:13:23;;;;;;;18.50;16.58;;;6.40;99.90;;;;;;4990867;28;89747;-31
2022/09/29 07:15:49;;;;;;;19.17;17.38;;;6.50;99.90;;;;;;4998759;28;89349;-28
2022/09/29 07:18:14;;;;;;;18.40;15.70;;;6.50;99.90;;;;;;4998684;28;89692;-32
2022/09/29 07:20:40;;;;;;;21.70;18.13;;;6.60;99.90;;;;;;4998778;28;90449;-29
2022/09/29 07:23:09;;;;;;;21.08;18.95;;;6.70;99.90;;;;;;4998114;28;89379;-33
2022/09/29 07:25:35;;;;;;;19.45;17.55;;;6.70;99.90;;;;;;4996200;28;90459;-31
2022/09/29 07:28:01;;;;;;;21.33;19.00;;;6.70;99.90;;;;;;4998690;28;90523;-28
2022/09/29 07:30:27;;;;;;;21.00;18.92;;;6.80;99.90;;;;;;4998622;28;90520;-32
2022/09/29 07:32:56;;;;;;;22.42;20.15;;;7.00;99.90;;;;;;4998827;28;89772;-33
2022/09/29 07:35:21;;;;;;;31.25;24.73;;;7.10;99.90;;;;;;4998353;28;89903;-29
2022/09/29 07:37:52;;;;;;;21.27;18.98;;;7.20;99.90;;;;;;4996911;28;89220;-29
2022/09/29 07:40:18;;;;;;;24.50;22.00;;;7.30;99.90;;;;;;4996856;28;89168;-31
2022/09/29 07:42:43;;;;;;;24.30;20.38;;;7.40;99.90;;;;;;4997422;28;90749;-31
2022/09/29 07:45:09;;;;;;;22.05;19.45;;;7.60;99.90;;;;;;4998356;28;89459;-29
2022/09/29 07:47:35;;;;;;;23.00;19.30;;;7.70;99.90;;;;;;4996520;28;90775;-31
2022/09/29 07:50:02;;;;;;;21.88;19.67;;;7.80;99.90;;;;;;4998158;28;89621;-29
2022/09/29 07:52:27;;;;;;;23.15;18.25;;;7.90;99.90;;;;;;4997358;28;89788;-29
2022/09/29 07:54:53;;;;;;;23.38;20.95;;;8.00;99.90;;;;;;4996831;28;89825;-33
2022/09/29 07:57:18;;;;;;;20.77;18.50;;;8.20;99.90;;;;;;4997205;28;88676;-32
2022/09/29 07:59:44;;;;;;;20.90;17.98;;;8.30;99.90;;;;;;4996592;28;89672;-28
2022/09/29 08:02:10;;;;;;;19.58;17.58;;;8.40;99.90;;;;;;4997523;28;90442;-28
2022/09/29 08:04:36;;;;;;;19.98;17.38;;;8.50;99.90;;;;;;4997035;28;89251;-30
2022/09/29 08:07:01;;;;;;;19.38;17.27;;;8.50;99.90;;;;;;4996915;28;89732;-33
2022/09/29 08:09:27;;;;;;;20.02;18.00;;;8.60;99.90;;;;;;4997544;28;88543;-32
2022/09/29 08:11:52;;;;;;;19.60;17.52;;;8.60;99.90;;;;;;4997412;28;90212;-32
2022/09/29 08:14:18;;;;;;;25.10;19.08;;;8.70;99.90;;;;;;4997779;28;90363;-30
2022/09/29 08:16:43;;;;;;;21.50;19.08;;;8.90;99.90;;;;;;4996762;28;90918;-30
2022/09/29 08:19:09;;;;;;;21.52;17.60;;;9.00;99.90;;;;;;4997768;28;88202;-30
2022/09/29 08:21:38;;;;;;;20.48;18.30;;;9.10;99.90;;;;;;4997011;28;90274;-30
2022/09/29 08:24:05;;;;;;;18.58;16.80;;;9.10;99.90;;;;;;4997343;28;88785;-31
2022/09/29 08:26:34;;;;;;;19.63;17.70;;;9.20;99.90;;;;;;4997479;28;89646;-32
2022/09/29 08:29:03;;;;;;;22.00;18.77;;;9.30;99.90;;;;;;4997616;28;89032;-34
2022/09/29 08:31:29;;;;;;;17.27;15.35;;;9.40;99.90;;;;;;4997441;28;90302;-32
2022/09/29 08:33:57;;;;;;;17.83;15.50;;;9.50;99.90;;;;;;4997303;28;88573;-31
2022/09/29 08:36:23;;;;;;;17.77;15.73;;;9.60;99.90;;;;;;4997027;28;89896;-30
2022/09/29 08:38:52;;;;;;;17.67;15.77;;;9.70;99.90;;;;;;4996860;28;89537;-31
2022/09/29 08:41:33;;;;;;;18.00;15.95;;;9.80;99.90;;;;;;4997078;28;89984;-31
2022/09/29 08:44:20;;;;;;;19.02;15.25;;;9.90;99.90;;;;;;4996276;28;89635;-32
2022/09/29 08:46:48;;;;;;;16.33;14.80;;;9.90;99.90;;;;;;4996719;28;89775;-29
2022/09/29 08:49:26;;;;;;;19.80;15.52;;;9.90;99.90;;;;;;4997449;28;89477;-32
2022/09/29 08:51:56;;;;;;;17.35;14.73;;;9.90;99.90;;;;;;4997270;28;89836;-32
2022/09/29 08:54:32;;;;;;;20.48;16.23;;;10.00;99.90;;;;;;4996859;28;90966;-31
2022/09/29 08:56:58;;;;;;;17.13;15.40;;;10.10;99.90;;;;;;4996737;28;89363;-33
2022/09/29 08:59:27;;;;;;;15.93;14.43;;;10.10;99.90;;;;;;4997297;28;89880;-30
2022/09/29 09:02:39;;;;;;;17.58;13.93;;;10.20;99.90;;;;;;4997119;28;90206;-33
2022/09/29 09:05:22;;;;;;;15.30;13.95;;;10.30;99.90;;;;;;4959371;28;90245;-31
2022/09/29 09:08:06;;;;;;;20.27;18.13;;;10.30;99.90;;;;;;4996744;28;90286;-32
2022/09/29 09:11:00;;;;;;;15.65;14.02;;;10.50;99.90;;;;;;4996847;28;89379;-29
2022/09/29 09:13:41;;;;;;;15.80;14.15;;;10.50;99.90;;;;;;4985276;28;89960;-33
2022/09/29 09:16:33;;;;;;;17.92;14.70;;;10.60;99.90;;;;;;4996567;28;89616;-32
2022/09/29 09:19:29;;;;;;;14.13;12.82;;;10.70;99.90;;;;;;4997131;28;89490;-30
2022/09/29 09:22:23;;;;;;;14.98;13.60;;;10.80;99.90;;;;;;4996759;28;89119;-32
2022/09/29 09:25:03;;;;;;;11.52;10.25;;;10.90;99.90;;;;;;4996308;28;90627;-32
2022/09/29 09:27:44;;;;;;;12.75;11.38;;;11.10;99.90;;;;;;4996668;28;89881;-29
2022/09/29 09:30:18;;;;;;;13.43;10.75;;;11.30;99.90;;;;;;4996706;28;89085;-28
2022/09/29 09:32:53;;;;;;;13.68;12.38;;;11.40;99.90;;;;;;4996422;28;88921;-33
2022/09/29 09:35:36;;;;;;;11.13;10.02;;;11.60;99.90;;;;;;4995877;28;90140;-31
2022/09/29 09:38:14;;;;;;;10.35;8.73;;;11.80;99.90;;;;;;4997082;28;90162;-32
2022/09/29 09:40:44;;;;;;;11.00;9.93;;;11.90;99.90;;;;;;4996856;28;89993;-32
2022/09/29 09:43:37;;;;;;;12.52;11.25;;;11.90;99.90;;;;;;4997168;28;88432;-29
2022/09/29 09:46:09;;;;;;;15.95;13.38;;;12.10;99.90;;;;;;4996147;28;90252;-31
2022/09/29 09:48:42;;;;;;;12.88;11.65;;;12.20;99.90;;;;;;4995681;28;88437;-32
2022/09/29 09:51:39;;;;;;;13.05;11.73;;;12.30;99.90;;;;;;4997130;28;89519;-30
2022/09/29 09:54:21;;;;;;;13.93;12.53;;;12.40;99.90;;;;;;4996128;28;89173;-32
2022/09/29 09:57:14;;;;;;;12.35;11.05;;;12.50;99.90;;;;;;4995932;28;89863;-32
2022/09/29 09:59:55;;;;;;;13.32;11.88;;;12.60;99.90;;;;;;4996042;28;91032;-30
2022/09/29 10:02:22;;;;;;;13.15;11.63;;;12.60;99.90;;;;;;4996193;28;90372;-33
2022/09/29 10:04:50;;;;;;;13.80;11.07;;;12.70;99.90;;;;;;4996442;28;88642;-32
2022/09/29 10:07:21;;;;;;;14.23;11.30;;;12.70;99.90;;;;;;4996108;28;91367;-30
2022/09/29 10:09:47;;;;;;;11.73;10.52;;;12.80;99.90;;;;;;4996412;28;89839;-30
2022/09/29 10:12:21;;;;;;;10.70;9.73;;;12.80;99.90;;;;;;4995117;28;88947;-32
2022/09/29 10:15:11;;;;;;;13.73;10.23;;;12.80;99.90;;;;;;4997224;28;88624;-29
2022/09/29 10:17:45;;;;;;;10.35;9.35;;;12.90;99.90;;;;;;5000326;28;90320;-31
2022/09/29 10:20:11;;;;;;;10.70;9.75;;;13.00;99.90;;;;;;4999624;28;89859;-33
2022/09/29 10:22:37;;;;;;;11.15;10.00;;;13.00;99.90;;;;;;4998783;28;89520;-30
2022/09/29 10:25:18;;;;;;;11.23;10.23;;;13.00;99.90;;;;;;4998754;28;90638;-30
2022/09/29 10:27:51;;;;;;;11.77;9.68;;;13.10;99.90;;;;;;4999292;28;90636;-30
2022/09/29 10:30:21;;;;;;;12.82;9.68;;;13.10;99.90;;;;;;4999807;28;89833;-28
2022/09/29 10:32:47;;;;;;;10.25;8.23;;;13.20;99.90;;;;;;4999603;28;89914;-30
2022/09/29 10:35:22;;;;;;;9.02;8.20;;;13.20;99.90;;;;;;4999634;28;89045;-31
2022/09/29 10:38:17;;;;;;;8.98;8.13;;;13.30;99.90;;;;;;4999225;28;92067;-32
2022/09/29 10:41:02;;;;;;;7.03;6.32;;;13.40;99.90;;;;;;4996556;28;89692;-31
2022/09/29 10:43:42;;;;;;;7.82;7.07;;;13.50;99.90;;;;;;4999963;28;89599;-34
2022/09/29 10:46:26;;;;;;;6.93;6.43;;;13.60;99.90;;;;;;4999938;28;88484;-33
2022/09/29 10:49:19;;;;;;;7.28;6.10;;;13.70;99.90;;;;;;4999230;28;89877;-30
2022/09/29 10:52:06;;;;;;;7.55;6.15;;;13.70;99.90;;;;;;4998906;28;91071;-28
2022/09/29 10:54:39;;;;;;;10.23;6.13;;;13.70;99.90;;;;;;4999404;28;90040;-32
2022/09/29 10:57:14;;;;;;;7.13;6.43;;;13.70;99.90;;;;;;4998925;28;89012;-29
2022/09/29 10:59:48;;;;;;;6.32;5.75;;;13.80;99.90;;;;;;4999055;28;90331;-31
2022/09/29 11:02:27;;;;;;;8.45;7.65;;;13.90;99.90;;;;;;4998572;28;88442;-30
2022/09/29 11:04:54;;;;;;;6.72;6.10;;;13.90;99.90;;;;;;4999035;28;89285;-30
2022/09/29 11:07:20;;;;;;;7.28;6.57;;;14.00;99.90;;;;;;4999056;28;89182;-32
2022/09/29 11:09:46;;;;;;;7.80;7.07;;;14.10;99.90;;;;;;4999174;28;91806;-30
2022/09/29 11:12:44;;;;;;;10.95;7.25;;;14.20;99.90;;;;;;4998240;28;89391;-34
2022/09/29 11:15:25;;;;;;;6.57;6.00;;;14.20;99.90;;;;;;4964640;28;89018;-32
2022/09/29 11:17:52;;;;;;;15.07;8.73;;;14.20;99.90;;;;;;4993495;28;89223;-31
2022/09/29 11:20:18;;;;;;;8.32;7.53;;;14.30;99.90;;;;;;4993731;28;90385;-30
2022/09/29 11:22:55;;;;;;;7.10;6.40;;;14.30;99.90;;;;;;4998931;28;89485;-32
2022/09/29 11:25:30;;;;;;;6.50;5.90;;;14.40;99.90;;;;;;4998977;28;90846;-33
2022/09/29 11:28:20;;;;;;;6.75;6.15;;;14.50;99.90;;;;;;4997716;28;88150;-31
2022/09/29 11:31:01;;;;;;;7.40;6.63;;;14.70;99.90;;;;;;4995874;28;89649;-32
2022/09/29 11:33:45;;;;;;;7.28;6.25;;;14.80;99.90;;;;;;4998682;28;89381;-33
2022/09/29 11:36:19;;;;;;;6.68;5.60;;;14.90;99.90;;;;;;4998511;28;89564;-32
2022/09/29 11:39:00;;;;;;;6.55;5.95;;;15.00;99.90;;;;;;4980750;28;88611;-30
2022/09/29 11:41:46;;;;;;;6.65;5.85;;;15.00;99.90;;;;;;4998923;28;90370;-31
2022/09/29 11:44:23;;;;;;;6.05;5.55;;;15.00;99.90;;;;;;4997827;28;90821;-34
2022/09/29 11:47:02;;;;;;;4.53;3.85;;;15.10;99.90;;;;;;4997789;28;90715;-29
2022/09/29 11:49:45;;;;;;;5.05;4.60;;;15.00;99.90;;;;;;4998136;28;88795;-32
2022/09/29 11:52:54;;;;;;;6.43;4.53;;;14.90;99.90;;;;;;4998507;28;89647;-31
2022/09/29 11:55:53;;;;;;;3.88;3.42;;;15.00;99.90;;;;;;4998095;28;89974;-33
2022/09/29 11:58:39;;;;;;;6.57;5.47;;;15.00;99.90;;;;;;4997412;28;90190;-33
2022/09/29 12:01:17;;;;;;;5.75;4.28;;;15.20;99.90;;;;;;4999030;28;90257;-31
2022/09/29 12:04:16;;;;;;;4.28;3.88;;;15.20;99.90;;;;;;4998479;28;90055;-31
2022/09/29 12:07:02;;;;;;;4.88;4.38;;;15.20;99.90;;;;;;4999246;28;88596;-32
2022/09/29 12:10:02;;;;;;;6.47;4.45;;;15.30;99.90;;;;;;4997781;28;90461;-31
2022/09/29 12:12:35;;;;;;;5.95;4.75;;;15.40;99.90;;;;;;4994334;28;88946;-33
2022/09/29 12:15:21;;;;;;;3.50;3.25;;;15.30;99.90;;;;;;4979711;28;89942;-30
2022/09/29 12:17:52;;;;;;;6.00;4.35;;;15.40;99.90;;;;;;4997923;28;90838;-34
2022/09/29 12:20:27;;;;;;;5.18;4.78;;;15.40;99.90;;;;;;4994936;28;89833;-31
2022/09/29 12:22:55;;;;;;;6.05;4.47;;;15.40;99.90;;;;;;4987781;28;88066;-33
2022/09/29 12:25:27;;;;;;;5.53;4.60;;;15.50;99.90;;;;;;4997275;28;90903;-31
2022/09/29 12:28:00;;;;;;;4.57;4.18;;;15.70;99.90;;;;;;4996736;28;90742;-32
2022/09/29 12:30:36;;;;;;;6.20;5.60;;;15.80;99.90;;;;;;4996206;28;89350;-30
2022/09/29 12:33:12;;;;;;;5.88;4.57;;;15.70;99.90;;;;;;4996075;28;90205;-31
2022/09/29 12:36:42;;;;;;;5.65;4.10;;;15.60;99.90;;;;;;4996777;28;90780;-32
2022/09/29 12:40:01;;;;;;;5.05;4.63;;;15.60;99.90;;;;;;4998588;28;91439;-36
2022/09/29 12:46:42;;;;;;;4.03;3.40;;;15.50;99.90;;;;;;4895026;28;88548;-31
2022/09/29 12:49:25;;;;;;;5.18;4.78;;;15.60;99.90;;;;;;4954901;28;90509;-32
2022/09/29 12:51:52;;;;;;;6.50;5.75;;;15.60;99.90;;;;;;4958420;28;89261;-30
2022/09/29 12:54:20;;;;;;;9.38;4.60;;;15.60;99.90;;;;;;4957702;28;89476;-33
2022/09/29 12:56:59;;;;;;;5.55;4.85;;;15.60;99.90;;;;;;4957076;28;90569;-30
2022/09/29 12:59:46;;;;;;;3.95;3.55;;;15.50;99.90;;;;;;4957314;28;90704;-31
2022/09/29 13:02:26;;;;;;;6.55;3.85;;;15.40;99.90;;;;;;4957402;28;89985;-36
2022/09/29 13:05:11;;;;;;;3.05;2.85;;;15.40;99.90;;;;;;4957756;28;89198;-30
2022/09/29 13:07:51;;;;;;;3.70;2.60;;;15.40;99.90;;;;;;4957629;28;89465;-31
2022/09/29 13:10:26;;;;;;;3.88;3.13;;;15.50;99.90;;;;;;4957718;28;90382;-30
2022/09/29 13:13:15;;;;;;;3.15;2.80;;;15.50;99.90;;;;;;4957665;28;91052;-31
2022/09/29 13:16:06;;;;;;;4.57;4.18;;;15.60;99.90;;;;;;4957854;28;91750;-32